Time;durP1;ratioP1;P1;durP2;ratioP2;P2;SDS_P1;SDS_P2;PMS_P1;PMS_P2;Temp;Humidity;BMP_temperature;BMP_pressure;BME280_temperature;BME280_humidity;BME280_pressure;Samples;Min_cycle;Max_cycle;Signal;HPM_P1;HPM_P2
2023/02/05 00:01:13;;;;;;;1.60;1.47;;;1.10;1.00;;;;;;5048495;28;20318;-55
2023/02/05 00:03:39;;;;;;;2.03;1.80;;;1.10;1.00;;;;;;5055159;28;20189;-56
2023/02/05 00:06:05;;;;;;;2.30;2.00;;;1.10;1.00;;;;;;5052559;28;20758;-55
2023/02/05 00:08:32;;;;;;;3.27;1.60;;;1.00;1.00;;;;;;5053492;28;20525;-54
2023/02/05 00:10:58;;;;;;;1.70;1.30;;;1.00;1.00;;;;;;5052309;28;20805;-56
2023/02/05 00:13:23;;;;;;;1.60;1.23;;;1.10;1.00;;;;;;5057375;28;20464;-55
2023/02/05 00:15:49;;;;;;;2.33;1.37;;;1.10;1.00;;;;;;5049411;28;20216;-54
2023/02/05 00:18:15;;;;;;;1.60;1.43;;;1.10;1.00;;;;;;5051033;28;20253;-55
2023/02/05 00:20:40;;;;;;;3.40;1.17;;;2.00;1.00;;;;;;5053255;28;20209;-56
2023/02/05 00:23:06;;;;;;;1.83;1.07;;;1.10;1.00;;;;;;5045260;28;20190;-57
2023/02/05 00:25:32;;;;;;;1.50;1.40;;;1.10;1.00;;;;;;5045050;28;20656;-56
2023/02/05 00:27:58;;;;;;;2.77;1.57;;;1.20;1.00;;;;;;5046305;28;20568;-54
2023/02/05 00:30:24;;;;;;;2.13;1.50;;;1.20;1.00;;;;;;5048145;28;20651;-56
2023/02/05 00:32:49;;;;;;;1.27;0.87;;;1.20;1.00;;;;;;5045207;28;20449;-55
2023/02/05 00:35:15;;;;;;;2.27;1.50;;;1.20;1.00;;;;;;5047534;28;20187;-55
2023/02/05 00:37:40;;;;;;;2.00;1.47;;;1.30;1.00;;;;;;5049372;28;20192;-54
2023/02/05 00:40:06;;;;;;;2.53;1.30;;;1.20;1.00;;;;;;5051087;28;20196;-55
2023/02/05 00:42:32;;;;;;;1.50;1.40;;;1.20;1.00;;;;;;5048200;28;20207;-56
2023/02/05 00:44:57;;;;;;;2.43;1.97;;;1.20;1.00;;;;;;5052339;28;20451;-54
2023/02/05 00:47:27;;;;;;;2.50;1.83;;;1.20;1.00;;;;;;5045956;28;20722;-56
2023/02/05 00:49:53;;;;;;;3.07;1.63;;;1.10;1.00;;;;;;5056152;28;20193;-55
2023/02/05 00:52:18;;;;;;;3.90;1.80;;;1.20;1.00;;;;;;5045905;28;20463;-55
2023/02/05 00:54:44;;;;;;;3.73;2.30;;;1.20;1.00;;;;;;5045716;28;20526;-54
2023/02/05 00:57:10;;;;;;;4.03;2.57;;;1.20;1.00;;;;;;5054584;28;20185;-56
2023/02/05 00:59:35;;;;;;;5.63;2.53;;;1.20;1.00;;;;;;5050516;28;20325;-55
2023/02/05 01:02:01;;;;;;;5.20;2.60;;;1.10;1.00;;;;;;5046447;28;20424;-56
2023/02/05 01:04:27;;;;;;;12.27;3.73;;;0.90;1.00;;;;;;5054951;28;20193;-56
2023/02/05 01:06:52;;;;;;;6.07;3.23;;;0.90;1.00;;;;;;5053713;28;20319;-55
2023/02/05 01:09:18;;;;;;;5.10;2.90;;;0.90;1.00;;;;;;5059721;28;20235;-54
2023/02/05 01:11:43;;;;;;;5.80;4.07;;;0.90;1.00;;;;;;5054025;28;20257;-55
2023/02/05 01:14:09;;;;;;;4.20;3.00;;;1.00;1.00;;;;;;5059332;28;20198;-54
2023/02/05 01:16:35;;;;;;;4.93;3.10;;;0.90;1.00;;;;;;5056196;28;20195;-54
2023/02/05 01:19:00;;;;;;;7.80;3.43;;;0.90;1.00;;;;;;5060154;28;20550;-54
2023/02/05 01:21:26;;;;;;;5.47;3.50;;;1.00;1.00;;;;;;5058716;28;20291;-55
2023/02/05 01:23:53;;;;;;;6.67;3.80;;;0.90;1.00;;;;;;5058545;28;20194;-55
2023/02/05 01:26:18;;;;;;;7.23;4.10;;;0.90;1.00;;;;;;5061670;28;20184;-55
2023/02/05 01:28:47;;;;;;;7.17;2.80;;;0.80;1.00;;;;;;5058720;28;20454;-56
2023/02/05 01:31:12;;;;;;;3.17;2.07;;;0.70;1.00;;;;;;5061210;28;20198;-54
2023/02/05 01:33:38;;;;;;;4.07;2.03;;;0.60;1.00;;;;;;5062385;28;20453;-55
2023/02/05 01:36:04;;;;;;;5.50;2.47;;;0.60;1.00;;;;;;5060821;28;20205;-56
2023/02/05 01:38:30;;;;;;;3.27;2.13;;;0.60;1.00;;;;;;5061845;28;20266;-54
2023/02/05 01:40:58;;;;;;;2.87;2.10;;;0.50;1.00;;;;;;5047893;28;20554;-54
2023/02/05 01:43:24;;;;;;;2.80;2.43;;;0.50;1.00;;;;;;5057083;28;20236;-55
2023/02/05 01:45:56;;;;;;;6.03;2.30;;;0.40;1.00;;;;;;5058963;28;20471;-54
2023/02/05 01:48:26;;;;;;;4.33;2.77;;;0.40;1.00;;;;;;5054170;28;20196;-56
2023/02/05 01:51:00;;;;;;;4.37;3.33;;;0.40;1.00;;;;;;5049789;28;20789;-55
2023/02/05 01:53:31;;;;;;;4.00;2.80;;;0.40;1.00;;;;;;5051987;28;20478;-56
2023/02/05 01:56:01;;;;;;;5.03;2.80;;;0.50;1.00;;;;;;5050148;28;20446;-55
2023/02/05 01:58:31;;;;;;;5.17;2.83;;;0.60;1.00;;;;;;5055847;28;20991;-55
2023/02/05 02:00:57;;;;;;;2.67;2.47;;;0.60;1.00;;;;;;5057960;28;20475;-55
2023/02/05 02:03:26;;;;;;;4.83;2.73;;;0.60;1.00;;;;;;5054181;28;20447;-55
2023/02/05 02:05:53;;;;;;;3.43;1.87;;;0.60;1.00;;;;;;5046420;28;20461;-55
2023/02/05 02:08:18;;;;;;;3.37;2.37;;;0.60;1.00;;;;;;5052586;28;20878;-55
2023/02/05 02:10:47;;;;;;;5.13;2.10;;;0.60;1.00;;;;;;5051048;28;20483;-54
2023/02/05 02:13:13;;;;;;;2.40;1.73;;;0.60;1.00;;;;;;5042219;28;20214;-53
2023/02/05 02:15:39;;;;;;;2.30;1.67;;;0.60;1.00;;;;;;5062107;28;20449;-55
2023/02/05 02:18:25;;;;;;;3.20;1.60;;;0.60;1.00;;;;;;5052819;28;20840;-55
2023/02/05 02:21:15;;;;;;;2.87;1.90;;;0.50;1.00;;;;;;5051625;28;20470;-54
2023/02/05 02:24:08;;;;;;;1.63;1.50;;;0.50;1.00;;;;;;5037332;28;20538;-56
2023/02/05 02:27:04;;;;;;;3.17;1.60;;;0.40;1.00;;;;;;5037582;28;20455;-55
2023/02/05 02:29:54;;;;;;;3.77;1.40;;;0.30;1.00;;;;;;5044340;28;20435;-55
2023/02/05 02:32:37;;;;;;;3.40;1.53;;;0.30;1.00;;;;;;5044456;28;20801;-54
2023/02/05 02:35:41;;;;;;;1.80;1.30;;;0.40;1.00;;;;;;5048246;28;20443;-55
2023/02/05 02:38:28;;;;;;;2.20;1.50;;;0.30;1.00;;;;;;5041381;28;20447;-54
2023/02/05 02:41:17;;;;;;;2.33;1.30;;;0.30;1.00;;;;;;5052831;28;20466;-54
2023/02/05 02:43:47;;;;;;;4.00;1.73;;;0.20;1.00;;;;;;5050741;28;20448;-55
2023/02/05 02:46:23;;;;;;;3.60;1.30;;;0.30;1.00;;;;;;5052407;28;20961;-56
2023/02/05 02:48:51;;;;;;;3.10;1.30;;;0.30;1.00;;;;;;5046287;28;20438;-54
2023/02/05 02:51:19;;;;;;;3.80;1.20;;;0.30;1.00;;;;;;5050870;28;20443;-54
2023/02/05 02:53:49;;;;;;;2.77;1.90;;;0.20;1.00;;;;;;5050165;28;21005;-55
2023/02/05 02:56:16;;;;;;;1.30;1.20;;;0.30;1.00;;;;;;5052411;28;20458;-54
2023/02/05 02:58:47;;;;;;;2.83;1.87;;;0.30;1.00;;;;;;5053140;28;20459;-54
2023/02/05 03:01:16;;;;;;;1.53;1.20;;;0.30;1.00;;;;;;5043689;28;20458;-54
2023/02/05 03:03:48;;;;;;;1.90;1.73;;;0.20;1.00;;;;;;5045879;28;20542;-55
2023/02/05 03:06:15;;;;;;;1.90;1.70;;;0.20;1.00;;;;;;5041419;28;20468;-54
2023/02/05 03:08:58;;;;;;;2.77;1.73;;;0.20;1.00;;;;;;5049958;28;20783;-54
2023/02/05 03:11:25;;;;;;;4.67;2.10;;;0.10;1.00;;;;;;5050594;28;20457;-55
2023/02/05 03:13:51;;;;;;;3.63;1.53;;;0.10;1.00;;;;;;5052512;28;20479;-54
2023/02/05 03:16:18;;;;;;;2.00;1.63;;;0.00;1.00;;;;;;5050539;28;20481;-55
2023/02/05 03:18:44;;;;;;;2.30;1.90;;;0.00;1.00;;;;;;5046941;28;20449;-54
2023/02/05 03:21:35;;;;;;;2.50;1.60;;;0.00;1.00;;;;;;5053971;28;20465;-54
2023/02/05 03:24:01;;;;;;;3.23;1.90;;;0.10;1.00;;;;;;5044608;28;20436;-55
2023/02/05 03:26:34;;;;;;;4.27;1.97;;;0.10;1.00;;;;;;5053081;28;20463;-55
2023/02/05 03:29:09;;;;;;;3.20;1.90;;;0.10;1.00;;;;;;5049887;28;20180;-54
2023/02/05 03:31:56;;;;;;;5.17;2.23;;;0.00;1.00;;;;;;5049883;28;20971;-53
2023/02/05 03:34:29;;;;;;;3.20;1.60;;;0.00;1.00;;;;;;5050628;28;20448;-54
2023/02/05 03:37:03;;;;;;;3.47;1.70;;;-0.10;1.00;;;;;;5051828;28;20452;-55
2023/02/05 03:40:04;;;;;;;4.03;2.07;;;-0.10;1.00;;;;;;5050448;28;20453;-54
2023/02/05 03:42:52;;;;;;;2.40;1.60;;;-0.10;1.00;;;;;;5052263;28;20474;-54
2023/02/05 03:45:23;;;;;;;3.80;1.70;;;-0.20;1.00;;;;;;5050634;28;20970;-54
2023/02/05 03:47:48;;;;;;;3.23;1.90;;;-0.10;1.00;;;;;;5054821;28;20509;-55
2023/02/05 03:50:29;;;;;;;1.90;1.63;;;-0.20;1.00;;;;;;5047301;28;20449;-54
2023/02/05 03:53:03;;;;;;;2.80;2.20;;;-0.20;1.00;;;;;;5053972;28;20307;-54
2023/02/05 03:55:37;;;;;;;2.30;1.57;;;-0.20;1.00;;;;;;5052508;28;20873;-54
2023/02/05 03:58:18;;;;;;;5.00;1.70;;;-0.10;1.00;;;;;;5044323;28;20529;-54
2023/02/05 04:00:45;;;;;;;3.57;1.97;;;-0.20;1.00;;;;;;5058000;28;20478;-55
2023/02/05 04:03:11;;;;;;;3.00;2.07;;;-0.20;1.00;;;;;;5055707;28;20444;-54
2023/02/05 04:05:36;;;;;;;3.73;2.10;;;-0.20;1.00;;;;;;5050631;28;20809;-54
2023/02/05 04:08:02;;;;;;;2.80;2.00;;;-0.20;1.00;;;;;;5051877;28;21711;-56
2023/02/05 04:10:28;;;;;;;2.57;1.60;;;-0.20;1.00;;;;;;5060413;28;20235;-54
2023/02/05 04:12:54;;;;;;;4.97;2.07;;;-0.20;1.00;;;;;;5043709;28;20829;-54
2023/02/05 04:15:19;;;;;;;4.07;1.70;;;-0.30;1.00;;;;;;5045639;28;20186;-54
2023/02/05 04:17:45;;;;;;;3.40;2.10;;;-0.30;1.00;;;;;;5046250;28;20233;-54
2023/02/05 04:20:10;;;;;;;4.00;2.10;;;-0.30;1.00;;;;;;5051556;28;20214;-55
2023/02/05 04:22:36;;;;;;;2.60;1.77;;;-0.20;1.00;;;;;;5049845;28;20215;-56
2023/02/05 04:25:02;;;;;;;6.43;2.20;;;-0.20;1.00;;;;;;5052805;28;20188;-54
2023/02/05 04:27:27;;;;;;;3.03;2.13;;;-0.30;1.00;;;;;;5057379;28;20193;-53
2023/02/05 04:29:53;;;;;;;3.50;1.90;;;-0.30;1.00;;;;;;5046392;28;20189;-54
2023/02/05 04:32:19;;;;;;;2.33;1.50;;;-0.40;1.00;;;;;;5047593;28;20843;-54
2023/02/05 04:34:45;;;;;;;3.23;1.80;;;-0.40;1.00;;;;;;5050213;28;20193;-54
2023/02/05 04:37:11;;;;;;;1.80;1.70;;;-0.40;1.00;;;;;;5049667;28;20545;-55
2023/02/05 04:39:36;;;;;;;2.90;2.03;;;-0.40;1.00;;;;;;5056238;28;20450;-54
2023/02/05 04:42:02;;;;;;;2.00;1.60;;;-0.40;1.00;;;;;;5049279;28;20217;-54
2023/02/05 04:44:28;;;;;;;3.63;2.10;;;-0.40;1.00;;;;;;5049324;28;20190;-54
2023/02/05 04:46:53;;;;;;;2.50;2.07;;;-0.50;1.00;;;;;;5051122;28;20488;-55
2023/02/05 04:49:19;;;;;;;1.60;1.50;;;-0.50;1.00;;;;;;5048434;28;20187;-55
2023/02/05 04:51:45;;;;;;;1.57;1.47;;;-0.50;1.00;;;;;;5044506;28;20184;-53
2023/02/05 04:54:10;;;;;;;5.30;2.00;;;-0.40;1.00;;;;;;5051242;28;20220;-54
2023/02/05 04:56:38;;;;;;;3.10;2.30;;;-0.50;1.00;;;;;;5052596;28;20200;-55
2023/02/05 04:59:03;;;;;;;2.63;2.13;;;-0.60;1.00;;;;;;5044822;28;20207;-54
2023/02/05 05:01:29;;;;;;;5.27;2.40;;;-0.60;1.00;;;;;;5045067;28;20468;-54
2023/02/05 05:03:55;;;;;;;1.73;1.63;;;-0.50;1.00;;;;;;5044572;28;22349;-55
2023/02/05 05:06:21;;;;;;;3.30;1.60;;;-0.50;1.00;;;;;;5050722;28;20452;-54
2023/02/05 05:08:46;;;;;;;8.50;2.40;;;-0.50;1.00;;;;;;5048211;28;20511;-56
2023/02/05 05:11:15;;;;;;;3.17;1.87;;;-0.40;1.00;;;;;;5048387;28;20261;-54
2023/02/05 05:13:41;;;;;;;3.80;2.50;;;-0.40;1.00;;;;;;5047283;28;20554;-54
2023/02/05 05:16:08;;;;;;;4.57;2.20;;;-0.40;1.00;;;;;;5049186;28;20456;-55
2023/02/05 05:18:34;;;;;;;2.33;2.07;;;-0.40;1.00;;;;;;5052819;28;21031;-53
2023/02/05 05:21:00;;;;;;;4.50;2.63;;;-0.40;1.00;;;;;;5049440;28;20583;-54
2023/02/05 05:23:26;;;;;;;3.57;2.00;;;-0.40;1.00;;;;;;5047944;28;20814;-54
2023/02/05 05:25:52;;;;;;;3.97;2.43;;;-0.30;1.00;;;;;;5048261;28;20839;-55
2023/02/05 05:28:18;;;;;;;3.30;2.53;;;-0.20;1.00;;;;;;5051684;28;20520;-55
2023/02/05 05:30:45;;;;;;;4.00;1.90;;;-0.20;1.00;;;;;;5049567;28;20199;-55
2023/02/05 05:33:11;;;;;;;3.83;2.47;;;-0.20;1.00;;;;;;5045325;28;20192;-54
2023/02/05 05:35:37;;;;;;;3.40;2.10;;;-0.20;1.00;;;;;;5047218;28;20487;-55
2023/02/05 05:38:03;;;;;;;2.23;1.83;;;0.00;1.00;;;;;;5039755;28;20500;-54
2023/02/05 05:46:01;;;;;;;2.20;1.83;;;0.10;1.00;;;;;;5048771;28;20491;-55
2023/02/05 05:48:27;;;;;;;2.40;2.20;;;0.10;1.00;;;;;;5046587;28;20472;-54
2023/02/05 05:50:53;;;;;;;2.40;2.13;;;0.10;1.00;;;;;;5050086;28;20447;-54
2023/02/05 05:53:19;;;;;;;1.70;1.60;;;0.10;1.00;;;;;;5044792;28;20547;-55
2023/02/05 05:55:45;;;;;;;3.03;2.63;;;0.10;1.00;;;;;;5044317;28;20447;-55
2023/02/05 05:58:11;;;;;;;4.13;2.43;;;0.10;1.00;;;;;;5043593;28;20461;-55
2023/02/05 06:00:39;;;;;;;4.63;1.77;;;0.10;1.00;;;;;;5051365;28;20192;-54
2023/02/05 06:03:05;;;;;;;4.10;2.00;;;-0.10;1.00;;;;;;5050644;28;20534;-54
2023/02/05 06:05:31;;;;;;;3.17;2.00;;;0.00;1.00;;;;;;5052807;28;21108;-54
2023/02/05 06:07:57;;;;;;;5.43;2.53;;;-0.20;1.00;;;;;;5043907;28;20967;-54
2023/02/05 06:10:23;;;;;;;2.53;1.97;;;-0.30;1.00;;;;;;5051381;28;20448;-55
2023/02/05 06:12:49;;;;;;;3.50;2.10;;;-0.40;1.00;;;;;;5048683;28;20189;-54
2023/02/05 06:15:15;;;;;;;2.60;2.00;;;-0.40;1.00;;;;;;5045211;28;20196;-55
2023/02/05 06:17:41;;;;;;;5.73;2.50;;;-0.40;1.00;;;;;;5045600;28;20936;-56
2023/02/05 06:20:08;;;;;;;3.63;2.00;;;-0.40;1.00;;;;;;5047406;28;20859;-56
2023/02/05 06:22:34;;;;;;;2.60;2.10;;;-0.50;1.00;;;;;;5049551;28;20471;-53
2023/02/05 06:25:01;;;;;;;3.83;1.90;;;-0.60;1.00;;;;;;5050850;28;20438;-55
2023/02/05 06:27:26;;;;;;;1.60;1.43;;;-0.70;1.00;;;;;;5047715;28;20707;-55
2023/02/05 06:29:52;;;;;;;3.30;2.00;;;-0.70;1.00;;;;;;5050435;28;20543;-54
2023/02/05 06:32:18;;;;;;;2.70;1.73;;;-0.70;1.00;;;;;;5041830;28;20460;-54
2023/02/05 06:34:44;;;;;;;2.13;1.77;;;-0.80;1.00;;;;;;5047145;28;20197;-54
2023/02/05 06:37:09;;;;;;;2.57;1.70;;;-0.70;1.00;;;;;;5046486;28;20459;-53
2023/02/05 06:39:35;;;;;;;5.67;2.10;;;-0.70;1.00;;;;;;5054442;28;20194;-55
2023/02/05 06:42:01;;;;;;;2.20;2.00;;;-0.70;1.00;;;;;;5044662;28;20205;-53
2023/02/05 06:44:26;;;;;;;1.53;1.30;;;-0.60;1.00;;;;;;5048160;28;20220;-54
2023/02/05 06:46:52;;;;;;;5.83;2.40;;;-0.60;1.00;;;;;;5047927;28;20189;-55
2023/02/05 06:49:18;;;;;;;2.97;2.47;;;-0.50;1.00;;;;;;5049089;28;20814;-53
2023/02/05 06:51:43;;;;;;;3.63;2.30;;;-0.50;1.00;;;;;;5051188;28;20193;-53
2023/02/05 06:54:09;;;;;;;3.30;2.30;;;-0.50;1.00;;;;;;5045845;28;20241;-55
2023/02/05 06:56:36;;;;;;;4.23;1.83;;;-0.60;1.00;;;;;;5045091;28;20515;-52
2023/02/05 06:59:02;;;;;;;3.63;2.60;;;-0.60;1.00;;;;;;5048074;28;21018;-55
2023/02/05 07:01:27;;;;;;;2.20;1.70;;;-0.50;1.00;;;;;;5053880;28;20243;-55
2023/02/05 07:03:55;;;;;;;2.23;1.93;;;-0.40;1.00;;;;;;5048477;28;20201;-55
2023/02/05 07:06:22;;;;;;;2.90;2.20;;;-0.30;1.00;;;;;;5050830;28;20204;-54
2023/02/05 07:08:50;;;;;;;5.77;2.50;;;-0.30;1.00;;;;;;5055605;28;20444;-55
2023/02/05 07:11:16;;;;;;;3.90;2.23;;;-0.40;1.00;;;;;;5049360;28;20449;-54
2023/02/05 07:13:42;;;;;;;2.23;1.80;;;-0.40;10.40;;;;;;5048363;28;20458;-55
2023/02/05 07:16:08;;;;;;;4.27;2.33;;;-0.40;1.00;;;;;;5046279;28;20456;-54
2023/02/05 07:18:33;;;;;;;4.03;2.20;;;-0.40;1.00;;;;;;5051532;28;20260;-54
2023/02/05 07:21:02;;;;;;;2.33;1.90;;;-0.30;1.00;;;;;;5052306;28;20776;-54
2023/02/05 07:23:28;;;;;;;2.90;2.60;;;-0.20;1.00;;;;;;5056307;28;20189;-56
2023/02/05 07:25:54;;;;;;;2.70;2.37;;;-0.20;1.00;;;;;;5052049;28;20451;-53
2023/02/05 07:28:19;;;;;;;2.43;2.10;;;-0.10;1.00;;;;;;5052541;28;20191;-55
2023/02/05 07:30:46;;;;;;;3.50;3.20;;;0.00;1.00;;;;;;5048539;28;20247;-54
2023/02/05 07:33:12;;;;;;;4.83;2.37;;;0.20;1.00;;;;;;5050530;28;20600;-54
2023/02/05 07:35:38;;;;;;;2.90;2.30;;;0.30;1.00;;;;;;5047058;28;20542;-55
2023/02/05 07:38:04;;;;;;;5.90;2.20;;;0.30;1.00;;;;;;5052196;28;21001;-59
2023/02/05 07:40:30;;;;;;;4.87;2.37;;;0.40;1.00;;;;;;5049255;28;20636;-54
2023/02/05 07:42:56;;;;;;;4.33;2.27;;;0.50;1.00;;;;;;5048490;28;20489;-54
2023/02/05 07:45:21;;;;;;;12.00;2.57;;;0.60;1.00;;;;;;5051024;28;20276;-54
2023/02/05 07:47:50;;;;;;;3.47;2.37;;;0.70;1.00;;;;;;5054656;28;20206;-54
2023/02/05 07:50:16;;;;;;;2.60;2.30;;;0.80;1.00;;;;;;5053501;28;20195;-55
2023/02/05 07:52:42;;;;;;;2.27;1.90;;;0.90;1.00;;;;;;5057047;28;20481;-55
2023/02/05 07:55:08;;;;;;;3.20;2.00;;;0.90;1.00;;;;;;5046363;28;20451;-54
2023/02/05 07:57:34;;;;;;;2.70;2.50;;;0.90;1.00;;;;;;5044809;28;20490;-55
2023/02/05 07:59:59;;;;;;;2.03;1.60;;;0.90;1.00;;;;;;5051334;28;20510;-54
2023/02/05 08:02:25;;;;;;;7.70;3.03;;;1.00;1.00;;;;;;5051691;28;20683;-54
2023/02/05 08:04:50;;;;;;;6.90;2.33;;;1.10;1.00;;;;;;5049441;28;20862;-55
2023/02/05 08:07:16;;;;;;;4.13;2.53;;;1.20;1.00;;;;;;5049784;28;20197;-54
2023/02/05 08:09:42;;;;;;;3.20;2.20;;;1.20;1.00;;;;;;5040066;28;20190;-54
2023/02/05 08:12:08;;;;;;;2.93;1.83;;;1.30;1.00;;;;;;5050476;28;20198;-55
2023/02/05 08:14:34;;;;;;;4.60;1.93;;;1.30;1.00;;;;;;5047421;28;20193;-55
2023/02/05 08:17:00;;;;;;;6.10;3.10;;;1.50;1.00;;;;;;5055303;28;20486;-55
2023/02/05 08:19:26;;;;;;;3.03;1.97;;;1.50;1.00;;;;;;5049153;28;20949;-57
2023/02/05 08:21:52;;;;;;;4.93;2.47;;;1.50;1.00;;;;;;5046143;28;20213;-55
2023/02/05 08:24:18;;;;;;;3.03;1.97;;;1.50;1.00;;;;;;5044946;28;20350;-54
2023/02/05 08:26:45;;;;;;;4.50;2.77;;;1.50;1.00;;;;;;5057820;28;20539;-55
2023/02/05 08:29:11;;;;;;;3.63;2.80;;;1.50;1.00;;;;;;5065474;28;20299;-54
2023/02/05 08:31:37;;;;;;;5.10;2.20;;;1.50;1.00;;;;;;5063984;28;20573;-56
2023/02/05 08:34:03;;;;;;;4.43;2.07;;;1.50;1.00;;;;;;5056571;28;20443;-54
2023/02/05 08:36:29;;;;;;;3.50;2.40;;;1.50;1.00;;;;;;5055611;28;20644;-54
2023/02/05 08:38:55;;;;;;;5.33;2.07;;;1.50;1.00;;;;;;5049313;28;20519;-55
2023/02/05 08:41:20;;;;;;;2.00;1.43;;;1.60;1.00;;;;;;5053056;28;20897;-56
2023/02/05 08:43:49;;;;;;;4.10;2.30;;;1.60;1.00;;;;;;5048380;28;20276;-54
2023/02/05 08:46:19;;;;;;;2.13;1.83;;;1.70;1.00;;;;;;5044530;28;20663;-55
2023/02/05 08:48:45;;;;;;;2.87;1.90;;;1.50;1.00;;;;;;5048861;28;20447;-54
2023/02/05 08:51:12;;;;;;;2.50;1.93;;;1.60;1.00;;;;;;5048214;28;20457;-56
2023/02/05 08:53:39;;;;;;;2.63;1.87;;;1.70;1.00;;;;;;5050681;28;20488;-56
2023/02/05 08:56:05;;;;;;;2.00;1.80;;;1.70;1.00;;;;;;5046000;28;20471;-54
2023/02/05 08:58:31;;;;;;;2.00;1.70;;;1.70;1.00;;;;;;5058512;28;20445;-55
2023/02/05 09:01:06;;;;;;;3.17;1.70;;;1.70;1.00;;;;;;5054306;28;20471;-56
2023/02/05 09:03:31;;;;;;;2.93;2.10;;;1.90;1.00;;;;;;5055531;28;20492;-54
2023/02/05 09:05:59;;;;;;;2.73;2.10;;;2.00;1.00;;;;;;5060943;28;21116;-54
2023/02/05 09:08:26;;;;;;;3.60;2.13;;;2.00;1.00;;;;;;5057507;28;20307;-55
2023/02/05 09:10:52;;;;;;;2.30;1.70;;;1.90;1.00;;;;;;5057760;28;20456;-54
2023/02/05 09:13:17;;;;;;;3.60;2.30;;;2.00;1.00;;;;;;5051879;28;20467;-56
2023/02/05 09:15:45;;;;;;;1.70;1.40;;;2.00;1.00;;;;;;5055288;28;20450;-55
2023/02/05 09:18:11;;;;;;;3.67;2.47;;;2.00;1.00;;;;;;5053700;28;20460;-55
2023/02/05 09:20:41;;;;;;;2.27;1.87;;;1.90;1.00;;;;;;5057595;28;20444;-53
2023/02/05 09:23:10;;;;;;;4.23;1.67;;;1.90;1.00;;;;;;5052111;28;20199;-54
2023/02/05 09:25:37;;;;;;;2.27;1.47;;;1.90;1.00;;;;;;5056015;28;20451;-54
2023/02/05 09:28:03;;;;;;;2.70;1.83;;;1.80;1.00;;;;;;5054772;28;20452;-54
2023/02/05 09:30:29;;;;;;;2.73;1.83;;;1.90;1.00;;;;;;5043380;28;20453;-56
2023/02/05 09:32:54;;;;;;;1.67;1.57;;;1.80;1.00;;;;;;5053569;28;20483;-54
2023/02/05 09:35:20;;;;;;;2.43;2.20;;;1.90;1.00;;;;;;5055174;28;20201;-54
2023/02/05 09:37:46;;;;;;;2.00;1.80;;;1.90;1.00;;;;;;5064263;28;20605;-55
2023/02/05 09:40:22;;;;;;;3.23;2.30;;;1.90;1.00;;;;;;5054884;28;20208;-54
2023/02/05 09:43:14;;;;;;;2.43;1.83;;;2.10;1.00;;;;;;5045899;28;20210;-55
2023/02/05 09:46:04;;;;;;;2.20;1.80;;;2.30;1.00;;;;;;5049083;28;20448;-53
2023/02/05 09:48:42;;;;;;;2.10;1.90;;;2.50;1.00;;;;;;5056438;28;20535;-54
2023/02/05 09:51:11;;;;;;;2.60;1.73;;;2.60;1.00;;;;;;5050987;28;20466;-54
2023/02/05 09:53:46;;;;;;;2.70;1.80;;;2.60;1.00;;;;;;5057780;28;20491;-54
2023/02/05 09:56:15;;;;;;;2.03;1.43;;;2.80;1.00;;;;;;5052997;28;20446;-55
2023/02/05 09:58:47;;;;;;;3.73;2.07;;;3.00;1.00;;;;;;5054289;28;20454;-55
2023/02/05 10:01:39;;;;;;;4.93;3.00;;;3.20;1.00;;;;;;5047024;28;20471;-56
2023/02/05 10:04:06;;;;;;;3.20;2.07;;;3.40;1.00;;;;;;5048664;28;20455;-54
2023/02/05 10:06:50;;;;;;;4.00;2.03;;;3.60;1.00;;;;;;5050651;28;20457;-56
2023/02/05 10:09:34;;;;;;;3.07;2.30;;;3.80;1.00;;;;;;5056586;28;20441;-55
2023/02/05 10:12:05;;;;;;;2.37;1.73;;;4.00;1.00;;;;;;5053104;28;20453;-55
2023/02/05 10:15:25;;;;;;;2.83;2.07;;;4.00;1.00;;;;;;5059943;28;20440;-55
2023/02/05 10:18:28;;;;;;;1.90;1.63;;;4.00;1.00;;;;;;5045829;28;20946;-54
2023/02/05 10:21:22;;;;;;;3.83;2.20;;;4.20;1.00;;;;;;5049213;28;20454;-56
2023/02/05 10:24:09;;;;;;;3.70;2.33;;;4.30;1.00;;;;;;5053088;28;20448;-55
2023/02/05 10:27:00;;;;;;;3.33;2.10;;;4.30;1.00;;;;;;5044290;28;20484;-55
2023/02/05 10:29:55;;;;;;;2.90;1.70;;;4.50;1.00;;;;;;5044991;28;20852;-56
2023/02/05 10:32:37;;;;;;;2.50;1.93;;;4.50;1.00;;;;;;5055798;28;20447;-54
2023/02/05 10:35:11;;;;;;;3.47;2.13;;;4.50;1.00;;;;;;5054139;28;20463;-54
2023/02/05 10:37:49;;;;;;;2.57;1.80;;;4.60;1.00;;;;;;5051097;28;20440;-55
2023/02/05 10:40:28;;;;;;;2.50;1.60;;;4.60;1.00;;;;;;5054296;28;20429;-55
2023/02/05 10:43:02;;;;;;;1.77;1.40;;;4.60;1.00;;;;;;5053923;28;20472;-54
2023/02/05 10:45:29;;;;;;;1.83;1.63;;;4.70;1.00;;;;;;5041809;28;20461;-57
2023/02/05 10:48:32;;;;;;;4.77;1.70;;;4.80;99.90;;;;;;5043555;28;20453;-53
2023/02/05 10:51:05;;;;;;;1.93;1.40;;;4.80;99.90;;;;;;5052404;28;20864;-55
2023/02/05 10:53:32;;;;;;;3.30;1.30;;;4.80;99.90;;;;;;5045706;28;22150;-55
2023/02/05 10:56:00;;;;;;;3.20;1.67;;;5.00;99.90;;;;;;5055270;28;20481;-54
2023/02/05 10:58:57;;;;;;;2.00;1.40;;;5.00;99.90;;;;;;5056331;28;20523;-55
2023/02/05 11:01:27;;;;;;;1.83;1.47;;;5.00;99.90;;;;;;5036073;28;20478;-55
2023/02/05 11:04:12;;;;;;;5.47;1.63;;;4.90;99.90;;;;;;5056116;28;20984;-60
2023/02/05 11:06:46;;;;;;;1.43;1.33;;;5.00;99.90;;;;;;5051994;28;20448;-54
2023/02/05 11:09:23;;;;;;;1.80;1.13;;;5.20;99.90;;;;;;5051227;28;20445;-55
2023/02/05 11:12:04;;;;;;;1.40;1.20;;;5.20;99.90;;;;;;5057675;28;20823;-56
2023/02/05 11:14:37;;;;;;;1.77;1.20;;;5.30;99.90;;;;;;5055016;28;20445;-55
2023/02/05 11:17:30;;;;;;;2.27;1.50;;;5.40;99.90;;;;;;5049471;28;20453;-55
2023/02/05 11:19:59;;;;;;;2.70;1.57;;;5.50;99.90;;;;;;5043542;28;20464;-54
2023/02/05 11:22:34;;;;;;;1.70;1.10;;;5.60;99.90;;;;;;5046572;28;20475;-54
2023/02/05 11:25:16;;;;;;;1.50;1.27;;;5.60;99.90;;;;;;5044415;28;20449;-53
2023/02/05 11:28:02;;;;;;;3.67;1.23;;;5.60;99.90;;;;;;5055100;28;20442;-54
2023/02/05 11:30:34;;;;;;;1.70;1.20;;;5.60;99.90;;;;;;5056479;28;21108;-54
2023/02/05 11:33:20;;;;;;;2.30;0.93;;;5.80;99.90;;;;;;5057201;28;20497;-54
2023/02/05 11:35:55;;;;;;;2.50;1.07;;;5.80;99.90;;;;;;5060281;28;20435;-54
2023/02/05 11:38:45;;;;;;;3.00;1.30;;;5.60;99.90;;;;;;5054124;28;20466;-53
2023/02/05 11:41:14;;;;;;;1.57;1.47;;;5.60;99.90;;;;;;5046365;28;20982;-53
2023/02/05 11:43:49;;;;;;;2.87;1.50;;;5.50;99.90;;;;;;5062100;28;20593;-53
2023/02/05 11:46:18;;;;;;;1.30;1.03;;;5.50;99.90;;;;;;5059876;28;20440;-54
2023/02/05 11:48:48;;;;;;;1.50;1.30;;;5.60;99.90;;;;;;5068191;28;20440;-54
2023/02/05 11:51:26;;;;;;;4.93;2.27;;;5.60;99.90;;;;;;5043329;28;20512;-56
2023/02/05 11:53:59;;;;;;;3.53;1.57;;;5.70;99.90;;;;;;5052985;28;20484;-54
2023/02/05 11:56:25;;;;;;;1.90;1.27;;;5.70;99.90;;;;;;5050450;28;20449;-54
2023/02/05 11:59:02;;;;;;;2.33;1.60;;;5.60;99.90;;;;;;5046925;28;20500;-54
2023/02/05 12:01:32;;;;;;;4.20;1.60;;;5.60;99.90;;;;;;5052455;28;20543;-54
2023/02/05 12:04:01;;;;;;;6.67;1.87;;;5.60;99.90;;;;;;5052900;28;20910;-53
2023/02/05 12:06:59;;;;;;;3.10;1.70;;;5.80;99.90;;;;;;5056147;28;20421;-55
2023/02/05 12:09:28;;;;;;;2.80;1.87;;;6.00;99.90;;;;;;5043144;28;20445;-55
2023/02/05 12:12:10;;;;;;;3.07;1.50;;;6.00;99.90;;;;;;5052546;28;20439;-56
2023/02/05 12:14:43;;;;;;;1.87;1.57;;;5.90;99.90;;;;;;5045510;28;20759;-56
2023/02/05 12:17:35;;;;;;;2.47;1.70;;;5.90;99.90;;;;;;5041819;28;20453;-54
2023/02/05 12:20:22;;;;;;;2.20;1.63;;;5.80;99.90;;;;;;5045086;28;21110;-54
2023/02/05 12:22:48;;;;;;;2.40;1.90;;;5.70;99.90;;;;;;5043157;28;20568;-55
2023/02/05 12:25:43;;;;;;;3.33;1.80;;;5.70;99.90;;;;;;5045830;28;20569;-56
2023/02/05 12:28:29;;;;;;;2.63;1.60;;;5.70;99.90;;;;;;5046138;28;20210;-55
2023/02/05 12:31:07;;;;;;;2.57;1.53;;;5.90;99.90;;;;;;5054162;28;20863;-55
2023/02/05 12:34:00;;;;;;;3.23;1.90;;;6.00;99.90;;;;;;5052976;28;20911;-55
2023/02/05 12:36:57;;;;;;;3.30;1.97;;;5.90;99.90;;;;;;5046061;28;20426;-54
2023/02/05 12:39:37;;;;;;;2.27;1.90;;;5.90;99.90;;;;;;5051291;28;20804;-57
2023/02/05 12:42:39;;;;;;;3.43;2.17;;;5.90;99.90;;;;;;5050238;28;20450;-54
2023/02/05 12:45:18;;;;;;;2.30;1.53;;;5.90;99.90;;;;;;5055349;28;20425;-54
2023/02/05 12:48:12;;;;;;;2.50;1.77;;;5.90;99.90;;;;;;5050949;28;20448;-55
2023/02/05 12:51:08;;;;;;;2.27;1.43;;;5.90;99.90;;;;;;5053783;28;20507;-56
2023/02/05 12:53:46;;;;;;;2.33;2.13;;;5.90;99.90;;;;;;5048905;28;20861;-55
2023/02/05 12:56:29;;;;;;;2.00;1.50;;;5.90;99.90;;;;;;5057321;28;20799;-55
2023/02/05 12:59:04;;;;;;;2.20;1.67;;;5.90;99.90;;;;;;5062008;28;20823;-56
2023/02/05 13:01:44;;;;;;;2.23;1.70;;;5.90;99.90;;;;;;5055981;28;20805;-54
2023/02/05 13:04:54;;;;;;;4.00;1.63;;;5.90;99.90;;;;;;5052719;28;20476;-54
2023/02/05 13:07:37;;;;;;;1.40;1.27;;;5.90;99.90;;;;;;5042075;28;20445;-54
2023/02/05 13:10:17;;;;;;;1.83;1.30;;;5.90;99.90;;;;;;5047904;28;20448;-56
2023/02/05 13:12:49;;;;;;;1.40;1.30;;;5.80;99.90;;;;;;5055236;28;20457;-55
2023/02/05 13:15:21;;;;;;;1.40;1.20;;;5.70;99.90;;;;;;5047253;28;20443;-55
2023/02/05 13:17:58;;;;;;;1.63;1.53;;;5.60;99.90;;;;;;5059055;28;20440;-55
2023/02/05 13:29:10;;;;;;;2.43;1.30;;;5.60;99.90;;;;;;5049705;28;20467;-56
2023/02/05 13:31:47;;;;;;;4.07;1.67;;;5.70;99.90;;;;;;5054409;28;20781;-55
2023/02/05 13:34:15;;;;;;;4.33;1.70;;;5.70;99.90;;;;;;5052652;28;20494;-55
2023/02/05 13:37:18;;;;;;;2.37;1.70;;;5.70;99.90;;;;;;5054387;28;20443;-55
2023/02/05 13:39:57;;;;;;;3.17;1.80;;;5.60;99.90;;;;;;5058547;28;20952;-57